Time;durP1;ratioP1;P1;durP2;ratioP2;P2;SDS_P1;SDS_P2;PMS_P1;PMS_P2;Temp;Humidity;BMP_temperature;BMP_pressure;BME280_temperature;BME280_humidity;BME280_pressure;Samples;Min_cycle;Max_cycle;Signal;HPM_P1;HPM_P2
2021/12/24 00:01:05;;;;;;;58.90;39.42;;;7.20;99.90;;;;;;4900686;29;20464;-89
2021/12/24 00:03:31;;;;;;;59.20;37.67;;;7.20;99.90;;;;;;4900843;29;20095;-89
2021/12/24 00:05:58;;;;;;;60.80;40.63;;;7.30;99.90;;;;;;4901169;29;20020;-89
2021/12/24 00:08:31;;;;;;;51.53;36.35;;;7.30;99.90;;;;;;4916599;29;20529;-90
2021/12/24 00:11:00;;;;;;;59.72;40.60;;;7.30;99.90;;;;;;4917952;29;20055;-89
2021/12/24 00:13:29;;;;;;;66.00;42.60;;;7.40;99.90;;;;;;4899488;29;20485;-90
2021/12/24 00:16:18;;;;;;;66.53;41.90;;;7.40;99.90;;;;;;4901040;29;20484;-89
2021/12/24 00:35:10;;;;;;;59.67;37.65;;;7.70;99.90;;;;;;4914469;29;20088;-89
2021/12/24 00:37:38;;;;;;;59.50;37.22;;;7.70;99.90;;;;;;4906847;29;20032;-89
2021/12/24 00:40:19;;;;;;;55.97;36.70;;;7.70;99.90;;;;;;4919141;29;20060;-88
2021/12/24 00:43:07;;;;;;;68.63;41.70;;;7.70;99.90;;;;;;4908589;29;20032;-89
2021/12/24 00:45:37;;;;;;;67.53;38.88;;;7.80;99.90;;;;;;4919774;29;20043;-90
2021/12/24 00:48:04;;;;;;;65.95;39.92;;;7.80;99.90;;;;;;4923859;29;20032;-89
2021/12/24 00:50:51;;;;;;;69.70;41.17;;;7.90;99.90;;;;;;4919253;29;20058;-89
2021/12/24 00:56:01;;;;;;;61.25;36.95;;;7.90;99.90;;;;;;4919301;29;20044;-90
2021/12/24 00:58:27;;;;;;;63.72;38.00;;;7.90;99.90;;;;;;4901975;29;20040;-90
2021/12/24 01:01:00;;;;;;;63.40;38.65;;;8.00;99.90;;;;;;4920927;29;20032;-90
2021/12/24 01:03:28;;;;;;;55.35;35.30;;;8.00;99.90;;;;;;4901461;29;20028;-89
2021/12/24 01:05:55;;;;;;;54.20;32.60;;;8.10;99.90;;;;;;4918654;29;20032;-90
2021/12/24 01:08:21;;;;;;;52.13;33.35;;;8.10;99.90;;;;;;4902486;29;20049;-90
2021/12/24 01:10:51;;;;;;;54.45;33.78;;;8.10;99.90;;;;;;4902663;29;20043;-90
2021/12/24 01:13:17;;;;;;;54.97;33.15;;;8.20;99.90;;;;;;4921322;29;20536;-91
2021/12/24 01:15:57;;;;;;;54.95;33.00;;;8.20;99.90;;;;;;4923201;29;20091;-88
2021/12/24 01:18:41;;;;;;;51.10;31.33;;;8.20;99.90;;;;;;4905242;29;20036;-90
2021/12/24 01:26:09;;;;;;;45.10;30.65;;;8.20;99.90;;;;;;4921284;29;20098;-90
2021/12/24 01:39:52;;;;;;;37.42;25.60;;;8.40;99.90;;;;;;4923807;29;20039;-89
2021/12/24 01:42:42;;;;;;;37.92;25.95;;;8.40;99.90;;;;;;4904136;29;20084;-90
2021/12/24 01:45:20;;;;;;;39.17;27.38;;;8.50;99.90;;;;;;4904087;29;20029;-90
2021/12/24 01:47:47;;;;;;;37.97;27.08;;;8.50;99.90;;;;;;4903257;29;20128;-89
2021/12/24 01:50:14;;;;;;;39.65;28.38;;;8.50;99.90;;;;;;4887566;29;20028;-90
2021/12/24 01:52:40;;;;;;;38.70;27.85;;;8.50;99.90;;;;;;4903018;29;20051;-90
2021/12/24 01:55:09;;;;;;;42.50;29.10;;;8.60;99.90;;;;;;4921020;29;20396;-90
2021/12/24 01:57:36;;;;;;;38.22;26.27;;;8.60;99.90;;;;;;4903339;29;20441;-89
2021/12/24 02:00:05;;;;;;;34.70;24.95;;;8.60;99.90;;;;;;4917050;29;20039;-88
2021/12/24 02:02:31;;;;;;;37.08;26.33;;;8.60;99.90;;;;;;4902914;29;20044;-90
2021/12/24 02:04:57;;;;;;;38.28;27.05;;;8.60;99.90;;;;;;4904322;29;20496;-90
2021/12/24 02:07:26;;;;;;;41.60;28.80;;;8.60;99.90;;;;;;4908013;29;20469;-90
2021/12/24 02:09:54;;;;;;;43.67;30.67;;;8.70;99.90;;;;;;4926845;29;20596;-90
2021/12/24 02:12:25;;;;;;;45.40;31.30;;;8.70;99.90;;;;;;4915105;29;20091;-89
2021/12/24 02:14:56;;;;;;;45.25;28.58;;;8.70;99.90;;;;;;4942940;29;20016;-89
2021/12/24 02:30:46;;;;;;;48.45;32.92;;;8.70;99.90;;;;;;4926050;29;20143;-90
2021/12/24 02:33:12;;;;;;;57.15;34.83;;;8.80;99.90;;;;;;4917719;29;20036;-90
2021/12/24 02:35:38;;;;;;;54.90;34.15;;;8.80;99.90;;;;;;4925529;29;20012;-89
2021/12/24 02:38:06;;;;;;;52.70;35.45;;;8.80;99.90;;;;;;4919982;29;20060;-90
2021/12/24 02:40:34;;;;;;;53.67;35.00;;;8.80;99.90;;;;;;4901397;29;20136;-90
2021/12/24 02:43:01;;;;;;;60.17;36.55;;;8.80;99.90;;;;;;4900386;29;20029;-90
2021/12/24 02:45:30;;;;;;;60.40;36.35;;;8.80;99.90;;;;;;4901768;29;20036;-90
2021/12/24 02:56:02;;;;;;;57.65;37.33;;;8.80;99.90;;;;;;4901199;29;20043;-90
2021/12/24 02:58:37;;;;;;;61.17;39.35;;;8.80;99.90;;;;;;4900157;29;20100;-90
2021/12/24 03:01:03;;;;;;;64.60;39.58;;;8.90;99.90;;;;;;4899407;29;20115;-90
2021/12/24 03:03:29;;;;;;;75.18;39.97;;;8.80;99.90;;;;;;4901275;29;20033;-92
2021/12/24 03:05:56;;;;;;;74.80;43.55;;;8.90;99.90;;;;;;4899670;29;20025;-90
2021/12/24 03:08:22;;;;;;;68.50;41.30;;;8.90;99.90;;;;;;4900103;29;20032;-88
2021/12/24 03:10:49;;;;;;;66.63;38.83;;;8.90;99.90;;;;;;4900522;29;20104;-89
2021/12/24 03:13:16;;;;;;;65.72;39.58;;;8.90;99.90;;;;;;4900573;29;20473;-90
2021/12/24 03:15:43;;;;;;;76.25;42.33;;;8.90;99.90;;;;;;4900091;29;20064;-89
2021/12/24 03:18:11;;;;;;;75.97;42.65;;;8.90;99.90;;;;;;4900796;29;20083;-89
2021/12/24 03:20:37;;;;;;;74.32;44.47;;;8.90;99.90;;;;;;4900259;29;20076;-90
2021/12/24 03:23:22;;;;;;;69.10;41.65;;;9.00;99.90;;;;;;4901624;29;20021;-89
2021/12/24 03:25:51;;;;;;;72.50;39.45;;;9.00;99.90;;;;;;4900896;29;20036;-89
2021/12/24 03:28:18;;;;;;;66.90;41.38;;;9.00;99.90;;;;;;4899507;29;20032;-90
2021/12/24 03:30:44;;;;;;;61.63;40.17;;;9.10;99.90;;;;;;4899224;29;20890;-89
2021/12/24 03:33:10;;;;;;;64.53;40.35;;;9.10;99.90;;;;;;4900247;29;20069;-89
2021/12/24 03:35:36;;;;;;;68.00;39.20;;;9.10;99.90;;;;;;4898882;29;20052;-90
2021/12/24 03:38:03;;;;;;;66.05;38.92;;;9.10;99.90;;;;;;4899413;29;20139;-90
2021/12/24 03:40:29;;;;;;;64.45;38.72;;;9.20;99.90;;;;;;4898173;29;20079;-89
2021/12/24 03:42:54;;;;;;;59.85;37.25;;;9.20;99.90;;;;;;4899114;29;20449;-90
2021/12/24 03:45:29;;;;;;;68.50;38.70;;;9.20;99.90;;;;;;4899258;29;20025;-90
2021/12/24 03:48:02;;;;;;;66.45;37.95;;;9.10;99.90;;;;;;4899253;29;20366;-90
2021/12/24 03:50:47;;;;;;;58.03;34.58;;;9.20;99.90;;;;;;4899263;29;20059;-89
2021/12/24 03:56:00;;;;;;;56.22;32.97;;;9.20;99.90;;;;;;4900148;29;20116;-90
2021/12/24 03:58:25;;;;;;;50.83;31.67;;;9.20;99.90;;;;;;4882640;29;20040;-89
2021/12/24 04:00:51;;;;;;;52.05;30.88;;;9.20;99.90;;;;;;4898029;29;20033;-90
2021/12/24 04:03:17;;;;;;;53.50;31.33;;;9.20;99.90;;;;;;4898526;29;20119;-90
2021/12/24 04:05:44;;;;;;;50.72;31.98;;;9.30;99.90;;;;;;4898907;29;20108;-90
2021/12/24 04:08:10;;;;;;;50.70;28.95;;;9.30;99.90;;;;;;4898768;29;20125;-89
2021/12/24 04:10:40;;;;;;;46.65;28.80;;;9.30;99.90;;;;;;4900009;29;20092;-89
2021/12/24 04:13:11;;;;;;;45.17;28.00;;;9.30;99.90;;;;;;4898842;29;20028;-89
2021/12/24 04:15:54;;;;;;;44.97;27.70;;;9.30;99.90;;;;;;4898561;29;20124;-90
2021/12/24 04:18:35;;;;;;;52.72;30.35;;;9.20;99.90;;;;;;4903350;29;20056;-89
2021/12/24 04:26:33;;;;;;;45.40;28.13;;;9.20;99.90;;;;;;4922134;29;20040;-90
2021/12/24 04:29:00;;;;;;;42.88;27.77;;;9.20;99.90;;;;;;4919656;29;20021;-90
2021/12/24 04:31:36;;;;;;;47.30;28.15;;;9.20;99.90;;;;;;4904151;29;20032;-90
2021/12/24 04:34:04;;;;;;;45.03;28.50;;;9.20;99.90;;;;;;4899315;29;20089;-89
2021/12/24 04:50:59;;;;;;;45.00;26.80;;;9.20;99.90;;;;;;4899769;29;20032;-89
2021/12/24 04:53:11;;;;;;;48.08;28.73;;;9.20;99.90;;;;;;4899710;29;20104;-90
2021/12/24 05:03:41;;;;;;;53.55;29.88;;;9.20;99.90;;;;;;4903367;29;20069;-90
2021/12/24 05:08:54;;;;;;;46.78;27.75;;;9.20;99.90;;;;;;4903106;29;20021;-91
2021/12/24 05:11:24;;;;;;;43.15;27.02;;;9.20;99.90;;;;;;4902057;29;20032;-90
2021/12/24 05:13:51;;;;;;;45.80;27.10;;;9.20;99.90;;;;;;4903126;29;20028;-90
2021/12/24 05:16:24;;;;;;;45.80;27.58;;;9.20;99.90;;;;;;4905120;29;20029;-89
2021/12/24 05:21:42;;;;;;;37.78;24.40;;;9.20;99.90;;;;;;4902584;29;20457;-89
2021/12/24 05:24:14;;;;;;;36.92;25.70;;;9.20;99.90;;;;;;4902104;29;20107;-89
2021/12/24 05:26:44;;;;;;;40.72;26.02;;;9.20;99.90;;;;;;4902161;29;20032;-89
2021/12/24 05:29:10;;;;;;;40.35;24.45;;;9.20;99.90;;;;;;4901043;29;20123;-90
2021/12/24 05:31:37;;;;;;;42.10;25.73;;;9.20;99.90;;;;;;4902805;29;20079;-89
2021/12/24 05:34:06;;;;;;;37.15;22.95;;;9.20;99.90;;;;;;4901459;29;20040;-90
2021/12/24 05:36:35;;;;;;;37.72;23.00;;;9.20;99.90;;;;;;4901470;29;20044;-90
2021/12/24 05:39:02;;;;;;;43.80;24.90;;;9.20;99.90;;;;;;4901631;29;20029;-90
2021/12/24 05:41:28;;;;;;;37.97;23.15;;;9.10;99.90;;;;;;4900548;29;20064;-91
2021/12/24 05:43:53;;;;;;;47.30;25.05;;;9.20;99.90;;;;;;4900626;29;20039;-90
2021/12/24 05:46:20;;;;;;;37.85;23.23;;;9.20;99.90;;;;;;4902128;29;20048;-90
2021/12/24 05:48:47;;;;;;;45.38;24.50;;;9.20;99.90;;;;;;4902041;29;20040;-90
2021/12/24 05:51:13;;;;;;;34.65;22.13;;;9.10;99.90;;;;;;4901360;29;20029;-90
2021/12/24 05:53:39;;;;;;;37.30;22.45;;;9.20;99.90;;;;;;4901950;29;20032;-89
2021/12/24 05:56:05;;;;;;;49.25;23.00;;;9.10;99.90;;;;;;4902044;29;20084;-90
2021/12/24 05:58:32;;;;;;;32.95;21.23;;;9.10;99.90;;;;;;4901166;29;20028;-89
2021/12/24 06:00:58;;;;;;;39.65;21.90;;;9.10;99.90;;;;;;4900129;29;20438;-90
2021/12/24 06:03:24;;;;;;;38.67;22.65;;;9.10;99.90;;;;;;4900328;29;20037;-90
2021/12/24 06:05:51;;;;;;;36.35;20.40;;;9.10;99.90;;;;;;4900730;29;20116;-89
2021/12/24 06:08:17;;;;;;;35.72;20.52;;;9.10;99.90;;;;;;4905525;29;20035;-90
2021/12/24 06:10:43;;;;;;;41.15;22.30;;;9.10;99.90;;;;;;4906548;29;20036;-89
2021/12/24 06:13:09;;;;;;;33.42;19.52;;;9.10;99.90;;;;;;4913078;29;20017;-90
2021/12/24 06:15:45;;;;;;;37.40;19.52;;;9.10;99.90;;;;;;4922852;29;20017;-90
2021/12/24 06:18:20;;;;;;;33.83;18.05;;;9.10;99.90;;;;;;4923333;29;20041;-90
2021/12/24 06:20:49;;;;;;;30.88;18.20;;;9.10;99.90;;;;;;4904471;29;20032;-89
2021/12/24 06:23:19;;;;;;;27.90;16.98;;;9.10;99.90;;;;;;4901578;29;20028;-89
2021/12/24 06:25:47;;;;;;;30.30;18.58;;;9.10;99.90;;;;;;4901257;29;20473;-91
2021/12/24 06:28:18;;;;;;;26.65;17.40;;;9.00;99.90;;;;;;4900979;29;20208;-89
2021/12/24 06:30:44;;;;;;;26.15;16.52;;;9.10;99.90;;;;;;4900961;29;20025;-90
2021/12/24 06:33:11;;;;;;;34.53;17.40;;;9.00;99.90;;;;;;4901204;29;20041;-90
2021/12/24 06:35:38;;;;;;;34.38;16.30;;;9.00;99.90;;;;;;4900319;29;20369;-90
2021/12/24 06:38:11;;;;;;;26.60;17.60;;;9.10;99.90;;;;;;4901230;29;20031;-90
2021/12/24 06:40:37;;;;;;;31.73;16.17;;;9.00;99.90;;;;;;4899544;29;20061;-89
2021/12/24 06:43:04;;;;;;;30.65;16.55;;;9.00;99.90;;;;;;4900474;29;20036;-90
2021/12/24 06:45:31;;;;;;;25.88;15.25;;;9.00;99.90;;;;;;4900217;29;20405;-90
2021/12/24 06:47:59;;;;;;;38.15;18.67;;;9.00;99.90;;;;;;4901533;29;20028;-89
2021/12/24 06:50:25;;;;;;;33.33;18.33;;;9.00;99.90;;;;;;4901716;29;20036;-89
2021/12/24 06:52:52;;;;;;;30.35;17.95;;;8.90;99.90;;;;;;4901415;29;20017;-90
2021/12/24 06:55:22;;;;;;;33.67;17.52;;;8.90;99.90;;;;;;4900322;29;20084;-90
2021/12/24 06:57:48;;;;;;;33.58;16.95;;;8.90;99.90;;;;;;4900919;29;20029;-89
2021/12/24 07:00:20;;;;;;;35.50;17.58;;;8.90;99.90;;;;;;4900812;29;20041;-89
2021/12/24 07:02:49;;;;;;;30.60;15.13;;;8.90;99.90;;;;;;4903444;29;20028;-90
2021/12/24 07:05:17;;;;;;;34.28;16.05;;;8.90;99.90;;;;;;4901906;29;20036;-90
2021/12/24 07:07:43;;;;;;;33.67;15.90;;;8.90;99.90;;;;;;4911419;29;20033;-89
2021/12/24 07:10:09;;;;;;;28.45;15.10;;;8.80;99.90;;;;;;4909801;29;20037;-90
2021/12/24 07:12:35;;;;;;;33.22;16.08;;;8.80;99.90;;;;;;4905076;29;20036;-89
2021/12/24 07:15:03;;;;;;;28.33;16.25;;;8.80;99.90;;;;;;4915597;29;20028;-89
2021/12/24 07:17:36;;;;;;;34.88;15.35;;;8.80;99.90;;;;;;4914743;29;20044;-90
2021/12/24 07:20:06;;;;;;;32.85;15.20;;;8.80;99.90;;;;;;4903482;29;20056;-90
2021/12/24 07:22:33;;;;;;;30.52;14.43;;;8.80;99.90;;;;;;4902555;29;20029;-89
2021/12/24 07:25:01;;;;;;;23.80;13.32;;;8.80;99.90;;;;;;4900307;29;20088;-90
2021/12/24 07:27:30;;;;;;;28.58;14.32;;;8.80;99.90;;;;;;4901459;29;20036;-91
2021/12/24 07:29:55;;;;;;;25.73;13.70;;;8.70;99.90;;;;;;4900183;29;20033;-90
2021/12/24 07:32:23;;;;;;;28.70;13.55;;;8.80;99.90;;;;;;4898066;29;20561;-90
2021/12/24 07:34:49;;;;;;;30.08;14.90;;;8.80;99.90;;;;;;4899866;29;20501;-91
2021/12/24 07:37:16;;;;;;;36.83;14.95;;;8.80;99.90;;;;;;4898245;29;20106;-92
2021/12/24 07:39:45;;;;;;;40.85;15.40;;;8.70;99.90;;;;;;4898064;29;20045;-90
2021/12/24 07:42:11;;;;;;;30.00;13.73;;;8.70;99.90;;;;;;4914287;29;20083;-89
2021/12/24 07:44:41;;;;;;;27.42;13.30;;;8.80;99.90;;;;;;4901562;29;20064;-90
2021/12/24 07:47:15;;;;;;;33.17;13.82;;;8.70;99.90;;;;;;4901903;29;20123;-90
2021/12/24 07:49:45;;;;;;;32.40;14.30;;;8.70;99.90;;;;;;4918760;29;20035;-91
2021/12/24 07:52:13;;;;;;;28.27;14.68;;;8.70;99.90;;;;;;4901591;29;20039;-90
2021/12/24 07:54:44;;;;;;;25.05;13.57;;;8.60;99.90;;;;;;4903130;29;20025;-91
2021/12/24 07:57:15;;;;;;;29.55;14.10;;;8.60;99.90;;;;;;4909558;29;20032;-90
2021/12/24 07:59:42;;;;;;;35.92;15.48;;;8.60;99.90;;;;;;4921476;29;20052;-90
2021/12/24 08:02:11;;;;;;;32.13;14.80;;;8.60;99.90;;;;;;4924895;29;20068;-91
2021/12/24 08:04:39;;;;;;;36.17;14.18;;;8.60;99.90;;;;;;4932673;29;20031;-91
2021/12/24 08:07:05;;;;;;;26.63;14.52;;;8.60;99.90;;;;;;4902838;29;20115;-91
2021/12/24 08:09:32;;;;;;;32.78;15.75;;;8.60;99.90;;;;;;4919545;29;20076;-91
2021/12/24 08:11:58;;;;;;;23.52;13.10;;;8.60;99.90;;;;;;4903119;29;20036;-91
2021/12/24 08:14:24;;;;;;;36.65;14.63;;;8.60;99.90;;;;;;4920086;29;20030;-89
2021/12/24 08:16:56;;;;;;;30.35;13.27;;;8.50;99.90;;;;;;4919818;29;20029;-90
2021/12/24 08:19:25;;;;;;;33.10;15.40;;;8.50;99.90;;;;;;4903153;29;20024;-91
2021/12/24 08:21:55;;;;;;;32.38;16.08;;;8.50;99.90;;;;;;4917949;29;20084;-91
2021/12/24 08:24:24;;;;;;;26.58;15.38;;;8.60;99.90;;;;;;4899728;29;20025;-91
2021/12/24 08:26:51;;;;;;;27.40;16.05;;;8.50;99.90;;;;;;4900231;29;20028;-91
2021/12/24 08:29:23;;;;;;;29.63;16.10;;;8.50;99.90;;;;;;4900553;29;20075;-92
2021/12/24 08:31:54;;;;;;;30.00;16.37;;;8.50;99.90;;;;;;4903315;29;20044;-90
2021/12/24 08:34:23;;;;;;;31.10;17.65;;;8.50;99.90;;;;;;4903503;29;20276;-91
2021/12/24 08:36:52;;;;;;;35.85;18.10;;;8.50;99.90;;;;;;4903604;29;20060;-90
2021/12/24 08:39:19;;;;;;;34.83;17.95;;;8.50;99.90;;;;;;4903747;29;20028;-91
2021/12/24 08:41:46;;;;;;;40.83;17.55;;;8.50;99.90;;;;;;4901537;29;20060;-90
2021/12/24 08:44:14;;;;;;;30.17;16.38;;;8.50;99.90;;;;;;4908175;29;20043;-91
2021/12/24 08:46:44;;;;;;;31.40;16.58;;;8.50;99.90;;;;;;4903841;29;20029;-91
2021/12/24 08:49:11;;;;;;;37.70;16.08;;;8.50;99.90;;;;;;4899439;29;20048;-91
2021/12/24 08:51:43;;;;;;;37.92;17.55;;;8.50;99.90;;;;;;4900223;29;20477;-90
2021/12/24 08:54:17;;;;;;;31.48;15.60;;;8.50;99.90;;;;;;4901533;29;20025;-90
2021/12/24 08:56:56;;;;;;;36.53;19.63;;;8.50;99.90;;;;;;4901757;29;20032;-91
2021/12/24 08:59:23;;;;;;;43.95;19.30;;;8.50;99.90;;;;;;4900336;29;20119;-90
2021/12/24 09:01:58;;;;;;;32.10;18.92;;;8.50;99.90;;;;;;4900898;29;20040;-93
2021/12/24 09:04:25;;;;;;;38.15;20.58;;;8.50;99.90;;;;;;4899558;29;20033;-91
2021/12/24 09:06:53;;;;;;;39.10;20.80;;;8.50;99.90;;;;;;4900757;29;20537;-92
2021/12/24 09:09:20;;;;;;;43.67;21.52;;;8.50;99.90;;;;;;4900806;29;20152;-91
2021/12/24 09:11:49;;;;;;;41.92;21.40;;;8.50;99.90;;;;;;4900022;29;20060;-91
2021/12/24 09:14:19;;;;;;;35.17;20.35;;;8.50;99.90;;;;;;4885206;29;20033;-90
2021/12/24 09:16:50;;;;;;;44.10;22.33;;;8.50;99.90;;;;;;4901195;29;20029;-92
2021/12/24 09:19:28;;;;;;;40.70;22.25;;;8.50;99.90;;;;;;4899879;29;20500;-90
2021/12/24 09:21:59;;;;;;;42.90;20.98;;;8.50;99.90;;;;;;4899536;29;20051;-91
2021/12/24 09:24:27;;;;;;;39.63;21.33;;;8.50;99.90;;;;;;4898525;29;20158;-90
2021/12/24 09:26:57;;;;;;;36.40;21.90;;;8.50;99.90;;;;;;4898609;29;20108;-90
2021/12/24 09:29:27;;;;;;;38.30;21.58;;;8.60;99.90;;;;;;4899228;29;20028;-92
2021/12/24 09:31:55;;;;;;;49.42;21.77;;;8.60;99.90;;;;;;4902345;29;20595;-89
2021/12/24 09:34:21;;;;;;;43.45;21.83;;;8.60;99.90;;;;;;4901429;29;20036;-91
2021/12/24 09:36:47;;;;;;;44.17;21.90;;;8.60;99.90;;;;;;4900806;29;20025;-89
2021/12/24 09:39:14;;;;;;;35.70;19.85;;;8.60;99.90;;;;;;4901512;29;20044;-90
2021/12/24 09:41:43;;;;;;;41.60;21.33;;;8.60;99.90;;;;;;4911578;29;20063;-91
2021/12/24 09:44:10;;;;;;;39.35;19.85;;;8.70;99.90;;;;;;4922662;29;20017;-90
2021/12/24 09:46:42;;;;;;;35.17;20.38;;;8.70;99.90;;;;;;4923712;29;20049;-89
2021/12/24 09:49:10;;;;;;;42.23;19.83;;;8.70;99.90;;;;;;4921763;29;20085;-90
2021/12/24 09:51:40;;;;;;;40.58;19.90;;;8.70;99.90;;;;;;4906502;29;20034;-90
2021/12/24 09:54:30;;;;;;;37.65;19.50;;;8.70;99.90;;;;;;4902671;29;20029;-90
2021/12/24 09:56:58;;;;;;;41.78;20.35;;;8.70;99.90;;;;;;4901154;29;20041;-90
2021/12/24 09:59:25;;;;;;;33.17;18.77;;;8.70;99.90;;;;;;4901896;29;20033;-89
2021/12/24 10:01:55;;;;;;;40.88;19.55;;;8.70;99.90;;;;;;4901675;29;20041;-89
2021/12/24 10:04:24;;;;;;;35.55;20.63;;;8.70;99.90;;;;;;4900392;29;20033;-90
2021/12/24 10:07:04;;;;;;;39.72;19.88;;;8.70;99.90;;;;;;4900554;29;20035;-89
2021/12/24 10:09:39;;;;;;;38.47;19.17;;;8.70;99.90;;;;;;4900731;29;20031;-89
2021/12/24 10:12:22;;;;;;;36.35;19.23;;;8.70;99.90;;;;;;4900355;29;20024;-89
2021/12/24 10:14:51;;;;;;;41.60;20.33;;;8.80;99.90;;;;;;4901253;29;20033;-90
2021/12/24 10:17:23;;;;;;;45.95;20.73;;;8.80;99.90;;;;;;4899874;29;20029;-89
2021/12/24 10:19:52;;;;;;;34.92;18.67;;;8.80;99.90;;;;;;4899787;29;20040;-89
2021/12/24 10:22:22;;;;;;;35.30;18.73;;;8.80;99.90;;;;;;4901202;29;20024;-91
2021/12/24 10:25:12;;;;;;;35.28;18.30;;;8.80;99.90;;;;;;4900399;29;20059;-90
2021/12/24 10:27:38;;;;;;;37.90;18.52;;;8.80;99.90;;;;;;4898152;29;20524;-89
2021/12/24 10:30:30;;;;;;;32.33;17.40;;;8.80;99.90;;;;;;4900111;29;20033;-89
2021/12/24 10:32:58;;;;;;;40.55;18.90;;;8.80;99.90;;;;;;4900946;29;20434;-89
2021/12/24 10:35:32;;;;;;;38.67;17.98;;;8.80;99.90;;;;;;4900022;29;20039;-90
2021/12/24 10:38:17;;;;;;;35.95;18.05;;;8.80;99.90;;;;;;4900773;29;20129;-89
2021/12/24 10:41:21;;;;;;;42.45;19.13;;;8.80;99.90;;;;;;4899194;29;20036;-91
2021/12/24 10:43:51;;;;;;;32.58;16.08;;;8.90;99.90;;;;;;4844081;29;20142;-88
2021/12/24 10:46:24;;;;;;;33.13;17.85;;;8.80;99.90;;;;;;4897345;29;20044;-89
2021/12/24 10:49:17;;;;;;;39.53;18.27;;;8.80;99.90;;;;;;4900949;29;20027;-89
2021/12/24 10:51:59;;;;;;;36.45;16.60;;;8.80;99.90;;;;;;4899471;29;20386;-89
2021/12/24 10:54:25;;;;;;;35.35;17.25;;;8.80;99.90;;;;;;4899230;29;20458;-89
2021/12/24 10:56:53;;;;;;;41.45;17.83;;;8.90;99.90;;;;;;4899050;29;20025;-90
2021/12/24 10:59:40;;;;;;;40.20;17.85;;;8.80;99.90;;;;;;4899419;29;20047;-89
2021/12/24 11:02:11;;;;;;;34.85;17.45;;;8.80;99.90;;;;;;4898810;29;20048;-89
2021/12/24 11:04:41;;;;;;;29.63;15.82;;;8.80;99.90;;;;;;4901306;29;20470;-88
2021/12/24 11:07:38;;;;;;;28.98;14.70;;;8.70;99.90;;;;;;4900964;29;20047;-88
2021/12/24 11:10:23;;;;;;;36.85;17.85;;;8.70;99.90;;;;;;4899466;29;20473;-88
2021/12/24 11:12:56;;;;;;;30.17;17.02;;;8.70;99.90;;;;;;4900808;29;20099;-88
2021/12/24 11:15:33;;;;;;;30.55;16.40;;;8.70;99.90;;;;;;4900195;29;20049;-88
2021/12/24 11:18:03;;;;;;;31.98;16.67;;;8.70;99.90;;;;;;4900161;29;20426;-89
2021/12/24 11:20:34;;;;;;;36.38;16.30;;;8.70;99.90;;;;;;4898754;29;20035;-88
2021/12/24 11:23:13;;;;;;;33.85;14.82;;;8.70;99.90;;;;;;4899409;29;20037;-89
2021/12/24 11:25:48;;;;;;;34.42;15.98;;;8.70;99.90;;;;;;4899154;29;20025;-88
2021/12/24 11:28:16;;;;;;;30.65;14.20;;;8.70;99.90;;;;;;4910848;29;20039;-88
2021/12/24 11:30:49;;;;;;;31.33;15.45;;;8.70;99.90;;;;;;4921290;29;20049;-88
2021/12/24 11:33:21;;;;;;;39.70;14.63;;;8.70;99.90;;;;;;4922456;29;20131;-89
2021/12/24 11:35:48;;;;;;;29.98;13.40;;;8.70;99.90;;;;;;4913248;29;20036;-88
2021/12/24 11:38:21;;;;;;;30.70;13.35;;;8.80;99.90;;;;;;4898658;29;20024;-88
2021/12/24 11:40:49;;;;;;;33.00;12.85;;;8.80;99.90;;;;;;4897756;29;20029;-88
2021/12/24 11:43:23;;;;;;;29.35;12.45;;;8.80;99.90;;;;;;4897653;29;20177;-88
2021/12/24 11:46:02;;;;;;;26.15;11.27;;;8.90;99.90;;;;;;4899306;29;20493;-87
2021/12/24 11:48:51;;;;;;;27.25;11.90;;;8.90;99.90;;;;;;4898707;29;20029;-88
2021/12/24 11:51:40;;;;;;;23.60;10.98;;;9.00;99.90;;;;;;4899963;29;20056;-90
2021/12/24 11:54:28;;;;;;;30.45;11.13;;;9.00;99.90;;;;;;4882975;29;20385;-88
2021/12/24 11:57:07;;;;;;;22.98;9.57;;;9.10;99.90;;;;;;4896812;29;20032;-89
2021/12/24 11:59:40;;;;;;;22.45;9.88;;;9.10;99.90;;;;;;4898990;29;20033;-88
2021/12/24 12:02:07;;;;;;;24.13;11.00;;;9.20;99.90;;;;;;4882286;29;20132;-89
2021/12/24 12:04:37;;;;;;;20.73;9.80;;;9.10;99.90;;;;;;4897308;29;20107;-88
2021/12/24 12:07:18;;;;;;;26.80;11.02;;;9.20;99.90;;;;;;4899530;29;20051;-89
2021/12/24 12:09:46;;;;;;;26.10;9.65;;;9.20;99.90;;;;;;4899020;29;20024;-88
2021/12/24 12:12:37;;;;;;;27.40;10.55;;;9.20;99.90;;;;;;4897618;29;20552;-88
2021/12/24 12:15:25;;;;;;;28.58;10.48;;;9.20;99.90;;;;;;4883962;29;20384;-89
2021/12/24 12:17:54;;;;;;;20.45;9.82;;;9.20;99.90;;;;;;4898152;29;20029;-89
2021/12/24 12:20:52;;;;;;;24.95;10.25;;;9.20;99.90;;;;;;4882432;29;20045;-90
2021/12/24 12:24:57;;;;;;;25.70;10.90;;;9.10;99.90;;;;;;4898484;29;20056;-89
2021/12/24 12:26:55;;;;;;;21.48;10.77;;;9.20;99.90;;;;;;4899280;29;20032;-89
2021/12/24 12:29:56;;;;;;;22.80;10.32;;;9.20;99.90;;;;;;4898156;29;20038;-89
2021/12/24 12:32:24;;;;;;;28.40;12.15;;;9.20;99.90;;;;;;4878400;29;20044;-89
2021/12/24 12:34:59;;;;;;;25.67;12.88;;;9.20;99.90;;;;;;4899082;29;20176;-89
2021/12/24 12:37:49;;;;;;;26.75;12.45;;;9.20;99.90;;;;;;4897099;29;20036;-89
2021/12/24 12:40:21;;;;;;;31.48;12.98;;;9.10;99.90;;;;;;4882909;29;20048;-89
2021/12/24 12:42:54;;;;;;;32.72;14.25;;;9.10;99.90;;;;;;4897263;29;20053;-90
2021/12/24 12:45:38;;;;;;;27.45;13.05;;;9.10;99.90;;;;;;4898128;29;20489;-90
2021/12/24 12:48:07;;;;;;;30.15;13.80;;;9.10;99.90;;;;;;4887229;29;20469;-88
2021/12/24 12:50:40;;;;;;;30.67;14.88;;;9.00;99.90;;;;;;4884047;29;20037;-88
2021/12/24 12:53:42;;;;;;;27.57;14.10;;;9.00;99.90;;;;;;4882767;29;20119;-89
2021/12/24 12:58:45;;;;;;;27.15;13.88;;;8.90;99.90;;;;;;1139507;23;21532;-87
2021/12/24 13:01:16;;;;;;;36.13;15.55;;;8.80;99.90;;;;;;4897084;29;20104;-91
2021/12/24 13:03:57;;;;;;;32.25;14.90;;;8.80;99.90;;;;;;4885512;29;20115;-92
2021/12/24 13:06:28;;;;;;;35.63;14.77;;;8.80;99.90;;;;;;4900329;29;20033;-93
2021/12/24 13:09:01;;;;;;;33.53;15.77;;;8.70;99.90;;;;;;4900892;29;20040;-91
2021/12/24 13:11:33;;;;;;;30.25;15.05;;;8.70;99.90;;;;;;4889121;29;20020;-91
2021/12/24 13:14:01;;;;;;;31.08;14.40;;;8.70;99.90;;;;;;4884397;29;20025;-91
2021/12/24 13:16:45;;;;;;;29.48;15.43;;;8.80;99.90;;;;;;4887395;29;20013;-91
2021/12/24 13:24:53;;;;;;;41.88;16.10;;;8.70;99.90;;;;;;4921644;29;20096;-92
2021/12/24 13:27:23;;;;;;;29.92;15.52;;;8.70;99.90;;;;;;4906684;29;20024;-92
2021/12/24 13:29:48;;;;;;;29.27;15.90;;;8.70;99.90;;;;;;4907277;29;20032;-88
2021/12/24 13:32:15;;;;;;;30.42;15.15;;;8.70;99.90;;;;;;4907983;29;20080;-92
2021/12/24 13:34:41;;;;;;;31.73;16.33;;;8.70;99.90;;;;;;4908058;29;20025;-91
2021/12/24 13:37:15;;;;;;;30.52;16.40;;;8.70;99.90;;;;;;4908081;29;20132;-91
2021/12/24 13:39:52;;;;;;;28.95;15.25;;;8.70;99.90;;;;;;4908094;29;20036;-91
2021/12/24 13:42:18;;;;;;;32.60;17.17;;;8.70;99.90;;;;;;4905787;29;20032;-90
2021/12/24 13:44:47;;;;;;;35.67;18.25;;;8.70;99.90;;;;;;4903163;29;20017;-92
2021/12/24 13:47:28;;;;;;;30.17;17.83;;;8.70;99.90;;;;;;4906566;29;20037;-92
2021/12/24 13:50:10;;;;;;;35.13;18.95;;;8.70;99.90;;;;;;4906253;29;20025;-94
2021/12/24 13:55:25;;;;;;;34.92;17.63;;;8.70;99.90;;;;;;4921675;29;20047;-91
2021/12/24 13:57:59;;;;;;;30.30;18.00;;;8.70;99.90;;;;;;4902193;29;20032;-92
2021/12/24 14:00:29;;;;;;;28.20;17.33;;;8.70;99.90;;;;;;4896996;29;20081;-94
2021/12/24 14:03:03;;;;;;;29.20;17.25;;;8.70;99.90;;;;;;4898248;29;20055;-92
2021/12/24 14:05:29;;;;;;;27.17;17.00;;;8.70;99.90;;;;;;4895858;29;20487;-94
2021/12/24 14:08:23;;;;;;;32.80;18.65;;;8.70;99.90;;;;;;4892797;29;20033;-92
2021/12/24 14:11:00;;;;;;;32.72;18.17;;;8.70;99.90;;;;;;4896467;29;20068;-94
2021/12/24 14:13:30;;;;;;;33.35;18.17;;;8.70;99.90;;;;;;4883279;29;20113;-92
2021/12/24 14:16:31;;;;;;;30.20;18.73;;;8.70;99.90;;;;;;4884534;29;20049;-92
2021/12/24 14:19:17;;;;;;;36.50;19.80;;;8.70;99.90;;;;;;4873366;29;20025;-86
2021/12/24 14:21:45;;;;;;;31.52;17.90;;;8.70;99.90;;;;;;4882778;29;20512;-88
2021/12/24 14:24:22;;;;;;;38.08;21.27;;;8.70;99.90;;;;;;4881855;29;20422;-89
2021/12/24 14:26:59;;;;;;;42.25;21.02;;;8.70;99.90;;;;;;4882464;29;20033;-92
2021/12/24 14:29:41;;;;;;;29.63;18.10;;;8.70;99.90;;;;;;4882633;29;20025;-89
2021/12/24 14:32:16;;;;;;;30.00;19.10;;;8.70;99.90;;;;;;4882410;29;20400;-90
2021/12/24 14:34:50;;;;;;;32.78;18.95;;;8.70;99.90;;;;;;4883121;29;20113;-89
2021/12/24 14:37:27;;;;;;;31.15;18.90;;;8.70;99.90;;;;;;4882270;29;20028;-89
2021/12/24 14:40:08;;;;;;;27.10;17.23;;;8.70;99.90;;;;;;4882669;29;20061;-90
2021/12/24 14:42:50;;;;;;;31.80;18.02;;;8.70;99.90;;;;;;4882534;29;20200;-91
2021/12/24 14:45:23;;;;;;;23.92;15.75;;;8.70;99.90;;;;;;4885911;29;20064;-90